Time;durP1;ratioP1;P1;durP2;ratioP2;P2;SDS_P1;SDS_P2;PMS_P1;PMS_P2;Temp;Humidity;BMP_temperature;BMP_pressure;BME280_temperature;BME280_humidity;BME280_pressure;Samples;Min_cycle;Max_cycle;Signal;HPM_P1;HPM_P2
2022/07/22 00:00:19;;;;;;;6.45;2.08;;;16.00;99.90;16.10;98230.00;;;;5044082;27;87775;-60
2022/07/22 00:02:46;;;;;;;4.75;2.10;;;16.00;99.90;16.10;98236.00;;;;5040356;28;87462;-60
2022/07/22 00:05:12;;;;;;;6.35;1.90;;;15.90;99.90;16.00;98237.00;;;;5043662;27;87706;-59
2022/07/22 00:07:39;;;;;;;3.35;1.83;;;15.90;99.90;16.00;98239.00;;;;5043470;27;88590;-59
2022/07/22 00:10:08;;;;;;;3.70;2.10;;;15.90;99.90;16.00;98245.00;;;;5044023;28;87145;-60
2022/07/22 00:12:34;;;;;;;3.30;1.83;;;15.90;99.90;16.10;98247.00;;;;5043014;27;86320;-60
2022/07/22 00:15:01;;;;;;;4.75;1.90;;;16.00;99.90;16.00;98230.00;;;;5043257;27;87822;-60
2022/07/22 00:17:29;;;;;;;4.22;2.00;;;16.00;99.90;16.10;98254.00;;;;5043665;27;88333;-59
2022/07/22 00:19:55;;;;;;;4.18;1.90;;;16.00;99.90;16.10;98234.00;;;;5043688;28;88394;-60
2022/07/22 00:22:21;;;;;;;5.43;1.90;;;16.00;99.90;16.10;98265.00;;;;5044233;28;87380;-60
2022/07/22 00:24:47;;;;;;;5.85;2.00;;;16.00;99.90;16.10;98240.00;;;;5043425;28;87716;-59
2022/07/22 00:27:14;;;;;;;7.15;1.85;;;16.10;99.90;16.10;98233.00;;;;5042840;27;86971;-59
2022/07/22 00:29:41;;;;;;;5.97;1.75;;;16.00;99.90;16.20;98245.00;;;;5044069;27;87409;-60
2022/07/22 00:32:07;;;;;;;3.53;1.88;;;16.10;99.90;16.20;98233.00;;;;5038808;28;86963;-60
2022/07/22 00:34:33;;;;;;;3.90;2.20;;;16.20;99.90;16.30;98244.00;;;;5038681;28;87897;-60
2022/07/22 00:37:00;;;;;;;5.20;1.77;;;16.10;99.90;16.30;98235.00;;;;5030202;28;87377;-59
2022/07/22 00:39:26;;;;;;;4.57;1.67;;;16.20;99.90;16.30;98237.00;;;;5041826;28;87474;-60
2022/07/22 00:41:52;;;;;;;3.05;1.77;;;16.30;99.90;16.30;98247.00;;;;5042592;27;87242;-60
2022/07/22 00:44:18;;;;;;;3.45;1.92;;;16.20;99.90;16.30;98243.00;;;;5036202;28;89123;-60
2022/07/22 00:46:44;;;;;;;4.15;1.63;;;16.20;99.90;16.30;98259.00;;;;5042672;28;88225;-59
2022/07/22 00:49:11;;;;;;;4.20;1.75;;;16.20;99.90;16.40;98227.00;;;;5042136;28;87178;-59
2022/07/22 00:51:39;;;;;;;3.30;1.80;;;16.20;99.90;16.40;98251.00;;;;5042152;28;87579;-58
2022/07/22 00:54:06;;;;;;;2.20;1.55;;;16.20;99.90;16.30;98239.00;;;;5042003;28;87637;-60
2022/07/22 00:56:32;;;;;;;2.92;1.75;;;16.30;99.90;16.40;98242.00;;;;5041195;28;87251;-60
2022/07/22 00:59:02;;;;;;;6.82;2.20;;;16.30;99.90;16.40;98246.00;;;;5040900;27;86995;-58
2022/07/22 01:01:29;;;;;;;2.67;1.65;;;16.30;99.90;16.40;98241.00;;;;5040648;28;86321;-59
2022/07/22 01:03:55;;;;;;;5.88;2.08;;;16.20;99.90;16.40;98258.00;;;;5042813;27;87547;-60
2022/07/22 01:06:21;;;;;;;5.90;1.60;;;16.20;99.90;16.40;98237.00;;;;5041097;28;87163;-60
2022/07/22 01:08:48;;;;;;;2.40;1.63;;;16.30;99.90;16.40;98248.00;;;;5033115;28;87947;-59
2022/07/22 01:11:19;;;;;;;3.35;1.65;;;16.30;99.90;16.40;98247.00;;;;5042515;27;87035;-59
2022/07/22 01:13:47;;;;;;;3.42;1.80;;;16.20;99.90;16.30;98261.00;;;;5042583;27;88823;-60
2022/07/22 01:16:16;;;;;;;2.70;1.70;;;16.20;99.90;16.30;98264.00;;;;5040369;28;88465;-60
2022/07/22 01:18:44;;;;;;;4.75;1.58;;;16.20;99.90;16.30;98264.00;;;;5042857;27;87375;-59
2022/07/22 01:21:14;;;;;;;4.72;1.63;;;16.20;99.90;16.30;98270.00;;;;5042440;27;87447;-60
2022/07/22 01:23:41;;;;;;;4.35;1.70;;;16.20;99.90;16.30;98268.00;;;;5042058;28;88738;-60
2022/07/22 01:26:08;;;;;;;3.08;2.20;;;16.20;99.90;16.40;98268.00;;;;5042284;28;86261;-59
2022/07/22 01:28:35;;;;;;;5.95;1.85;;;16.30;99.90;16.40;98275.00;;;;5041371;28;87623;-60
2022/07/22 01:31:02;;;;;;;5.13;1.40;;;16.20;99.90;16.40;98270.00;;;;5041826;27;87021;-59
2022/07/22 01:33:28;;;;;;;2.80;1.60;;;16.30;99.90;16.30;98271.00;;;;5036184;28;88779;-59
2022/07/22 01:35:54;;;;;;;1.95;1.50;;;16.20;99.90;16.30;98265.00;;;;5033672;28;88184;-59
2022/07/22 01:38:22;;;;;;;3.15;1.70;;;16.20;99.90;16.30;98274.00;;;;5040114;28;88000;-60
2022/07/22 01:40:48;;;;;;;2.60;1.85;;;16.10;99.90;16.30;98262.00;;;;5041662;28;87135;-59
2022/07/22 01:43:17;;;;;;;4.75;2.15;;;16.20;99.90;16.30;98283.00;;;;5041132;28;87127;-59
2022/07/22 01:45:46;;;;;;;4.18;1.77;;;16.10;99.90;16.30;98272.00;;;;5040554;28;87430;-59
2022/07/22 01:48:12;;;;;;;4.60;2.05;;;16.20;99.90;16.30;98285.00;;;;5042083;28;87289;-59
2022/07/22 01:50:41;;;;;;;4.97;1.55;;;16.20;99.90;16.30;98274.00;;;;5041536;28;86309;-60
2022/07/22 01:53:08;;;;;;;3.05;1.98;;;16.20;99.90;16.30;98283.00;;;;5042116;27;88124;-59
2022/07/22 01:55:34;;;;;;;2.70;1.60;;;16.20;99.90;16.40;98271.00;;;;5033814;28;87924;-61
2022/07/22 01:58:01;;;;;;;3.28;1.83;;;16.20;99.90;16.40;98272.00;;;;5032530;28;88388;-61
2022/07/22 02:00:33;;;;;;;3.73;1.80;;;16.20;99.90;16.40;98285.00;;;;5025187;28;87019;-61
2022/07/22 02:03:00;;;;;;;3.08;1.70;;;16.20;99.90;16.40;98272.00;;;;5041299;28;88680;-62
2022/07/22 02:05:29;;;;;;;4.75;2.30;;;16.20;99.90;16.40;98269.00;;;;5038752;28;88110;-59
2022/07/22 02:08:03;;;;;;;;;;;16.20;99.90;16.40;98278.00;;;;5038199;28;87192;-59
2022/07/22 02:10:37;;;;;;;2.72;1.70;;;16.30;99.90;16.40;98275.00;;;;5059170;27;86949;-61
2022/07/22 02:13:04;;;;;;;4.57;1.70;;;16.20;99.90;16.40;98281.00;;;;5039459;28;87928;-61
2022/07/22 02:15:31;;;;;;;3.47;1.90;;;;;16.40;98285.00;;;;5052786;27;88722;-61
2022/07/22 02:18:08;;;;;;;3.35;1.63;;;16.30;99.90;16.40;98293.00;;;;5041073;28;87012;-58
2022/07/22 02:20:34;;;;;;;2.95;1.63;;;16.30;99.90;16.50;98286.00;;;;5041100;28;87416;-58
2022/07/22 02:23:00;;;;;;;3.88;2.00;;;16.30;99.90;16.50;98288.00;;;;5029436;28;88817;-58
2022/07/22 02:25:27;;;;;;;4.68;2.05;;;16.30;99.90;16.50;98288.00;;;;5034457;28;89294;-58
2022/07/22 02:27:57;;;;;;;2.97;1.80;;;16.40;99.90;16.60;98290.00;;;;5041672;27;86985;-58
2022/07/22 02:30:23;;;;;;;2.63;1.70;;;16.40;99.90;16.60;98299.00;;;;5042165;28;87115;-58
2022/07/22 02:32:49;;;;;;;5.32;1.80;;;16.50;99.90;16.60;98308.00;;;;5040508;28;87668;-59
2022/07/22 02:35:15;;;;;;;7.22;1.80;;;16.40;99.90;16.70;98289.00;;;;5025841;28;87276;-58
2022/07/22 02:37:41;;;;;;;3.58;1.75;;;16.70;99.90;16.90;98296.00;;;;5040452;28;87778;-58
2022/07/22 02:40:09;;;;;;;6.13;2.10;;;17.10;99.90;17.20;98293.00;;;;5039328;28;87437;-58
2022/07/22 02:42:36;;;;;;;3.85;1.50;;;17.50;99.90;17.80;98303.00;;;;5034330;28;87654;-58
2022/07/22 02:45:04;;;;;;;4.20;1.77;;;18.00;99.90;18.40;98310.00;;;;5040418;28;88428;-58
2022/07/22 02:47:30;;;;;;;2.95;1.67;;;18.10;99.90;18.40;98310.00;;;;5036694;28;87881;-59
2022/07/22 02:49:57;;;;;;;4.07;1.70;;;18.10;99.90;18.80;98310.00;;;;5031628;28;87106;-58
2022/07/22 02:52:23;;;;;;;3.03;1.50;;;18.60;99.90;18.90;98311.00;;;;5040399;28;87644;-59
2022/07/22 02:54:49;;;;;;;7.03;1.55;;;18.60;99.90;19.10;98305.00;;;;5037059;28;87182;-59
2022/07/22 02:57:16;;;;;;;2.50;1.35;;;18.80;99.90;19.10;98311.00;;;;5041037;27;87024;-59
2022/07/22 02:59:43;;;;;;;5.43;1.63;;;18.80;99.90;19.20;98313.00;;;;5036366;28;86972;-59
2022/07/22 03:02:09;;;;;;;2.85;1.40;;;19.00;99.90;19.40;98320.00;;;;5036551;28;87692;-60
2022/07/22 03:04:36;;;;;;;4.35;1.65;;;19.00;99.90;19.20;98314.00;;;;5040561;28;88077;-60
2022/07/22 03:07:02;;;;;;;2.70;1.50;;;18.90;99.90;19.20;98318.00;;;;5040065;28;87050;-60
2022/07/22 03:09:30;;;;;;;6.25;1.60;;;19.00;99.90;19.30;98309.00;;;;5040535;28;87213;-61
2022/07/22 03:11:56;;;;;;;2.67;1.20;;;19.00;99.90;19.50;98315.00;;;;5039834;28;88514;-59
2022/07/22 03:14:22;;;;;;;4.32;1.60;;;19.30;99.90;19.70;98310.00;;;;5036126;28;87532;-61
2022/07/22 03:16:48;;;;;;;3.40;1.73;;;19.40;99.90;19.90;98343.00;;;;5039066;28;87498;-59
2022/07/22 03:19:15;;;;;;;3.78;1.42;;;19.50;99.90;19.90;98331.00;;;;5040470;28;87036;-60
2022/07/22 03:21:44;;;;;;;2.65;1.60;;;19.50;99.90;19.80;98334.00;;;;5040166;28;90033;-62
2022/07/22 03:24:10;;;;;;;3.60;1.80;;;19.50;99.90;19.80;98328.00;;;;5028674;28;87101;-60
2022/07/22 03:26:36;;;;;;;1.80;1.42;;;19.60;99.90;19.90;98335.00;;;;5033643;28;87137;-59
2022/07/22 03:29:04;;;;;;;2.97;1.50;;;19.60;99.90;20.30;98343.00;;;;5040539;28;86668;-60
2022/07/22 03:31:30;;;;;;;3.45;1.90;;;19.90;99.90;20.30;98341.00;;;;5039288;27;87695;-59
2022/07/22 03:33:57;;;;;;;2.10;1.60;;;19.80;99.90;20.20;98350.00;;;;5035508;28;87837;-60
2022/07/22 03:36:23;;;;;;;2.55;1.60;;;19.80;99.90;20.20;98355.00;;;;5030619;28;88033;-60
2022/07/22 03:38:51;;;;;;;5.25;1.77;;;19.70;99.90;20.00;98369.00;;;;5039571;28;87027;-60
2022/07/22 03:41:17;;;;;;;3.33;1.63;;;19.80;99.90;20.20;98373.00;;;;5039043;28;88945;-60
2022/07/22 03:43:44;;;;;;;3.17;1.70;;;20.00;99.90;20.20;98361.00;;;;5039168;28;87107;-60
2022/07/22 03:46:11;;;;;;;3.00;1.52;;;19.90;99.90;20.20;98359.00;;;;5038790;28;86966;-59
2022/07/22 03:48:38;;;;;;;6.03;1.85;;;19.50;99.90;19.80;98371.00;;;;5039133;28;87431;-61
2022/07/22 03:51:05;;;;;;;3.75;1.42;;;19.80;99.90;20.10;98363.00;;;;5029328;28;88530;-60
2022/07/22 03:53:32;;;;;;;3.20;1.75;;;19.80;99.90;20.50;98372.00;;;;5039386;28;87418;-60
2022/07/22 03:55:59;;;;;;;5.03;1.48;;;20.00;99.90;20.40;98383.00;;;;5030845;28;87905;-60
2022/07/22 03:58:27;;;;;;;3.25;1.50;;;19.60;99.90;20.00;98388.00;;;;5039349;28;88013;-61
2022/07/22 04:00:54;;;;;;;3.88;1.75;;;19.60;99.90;19.90;98379.00;;;;5038305;27;88795;-60
2022/07/22 04:03:21;;;;;;;3.15;1.42;;;19.60;99.90;20.20;98389.00;;;;5043109;27;88296;-60
2022/07/22 04:06:09;;;;;;;5.03;1.80;;;19.90;99.90;20.30;98377.00;;;;5041749;28;86981;-61
2022/07/22 04:08:46;;;;;;;2.97;1.20;;;20.10;99.90;20.50;98385.00;;;;5042803;28;87062;-60
2022/07/22 04:11:13;;;;;;;2.60;1.77;;;20.00;99.90;20.40;98393.00;;;;5042536;28;87716;-61
2022/07/22 04:13:40;;;;;;;6.07;1.85;;;20.10;99.90;20.50;98388.00;;;;5041002;28;87184;-60
2022/07/22 04:16:07;;;;;;;2.97;1.60;;;20.40;99.90;20.60;98396.00;;;;5042497;28;87089;-60
2022/07/22 04:18:34;;;;;;;7.25;1.60;;;20.30;99.90;20.70;98390.00;;;;5043145;28;86325;-60
2022/07/22 04:21:00;;;;;;;4.93;1.60;;;20.50;99.90;21.00;98387.00;;;;5042697;28;87531;-60
2022/07/22 04:23:43;;;;;;;11.43;1.80;;;20.70;99.90;21.00;98385.00;;;;5037867;28;87530;-61
2022/07/22 04:26:15;;;;;;;8.20;1.67;;;20.60;99.90;21.40;98386.00;;;;5041063;28;88023;-61
2022/07/22 04:28:41;;;;;;;4.43;1.60;;;21.10;99.90;21.60;98390.00;;;;5036715;28;87092;-60
2022/07/22 04:31:07;;;;;;;3.85;1.55;;;21.10;99.90;21.80;98392.00;;;;5043423;27;87590;-60
2022/07/22 04:33:36;;;;;;;3.65;1.60;;;21.20;99.90;21.90;98389.00;;;;5041212;28;87352;-60
2022/07/22 04:36:02;;;;;;;6.22;1.70;;;21.30;99.90;22.00;98406.00;;;;5042367;28;87132;-61
2022/07/22 04:38:28;;;;;;;5.10;1.90;;;21.30;99.90;21.90;98393.00;;;;5031050;28;86994;-61
2022/07/22 04:41:00;;;;;;;2.90;1.73;;;21.50;99.90;22.00;98387.00;;;;5040485;28;87537;-60
2022/07/22 04:43:26;;;;;;;4.90;1.75;;;21.60;99.90;22.20;98392.00;;;;5041808;28;87121;-60
2022/07/22 04:45:52;;;;;;;4.32;1.50;;;21.60;99.90;22.20;98419.00;;;;5025103;28;88254;-60
2022/07/22 04:48:19;;;;;;;2.00;1.50;;;22.00;99.90;22.60;98396.00;;;;5033331;28;87139;-60
2022/07/22 04:50:45;;;;;;;5.70;2.00;;;22.00;99.90;22.90;98397.00;;;;5033085;28;89756;-60
2022/07/22 04:53:11;;;;;;;3.40;2.10;;;22.30;99.90;22.90;98400.00;;;;5042527;27;89642;-60
2022/07/22 04:55:38;;;;;;;5.22;1.67;;;22.30;99.90;23.00;98405.00;;;;5040069;28;86983;-61
2022/07/22 04:58:04;;;;;;;4.40;1.55;;;22.10;99.90;22.90;98405.00;;;;5041723;28;87163;-61
2022/07/22 05:00:31;;;;;;;3.80;1.60;;;22.30;99.90;23.00;98423.00;;;;5042561;27;87767;-60
2022/07/22 05:02:57;;;;;;;4.60;1.33;;;22.20;99.90;23.00;98415.00;;;;5041599;28;87356;-60
2022/07/22 05:05:23;;;;;;;4.28;1.55;;;22.50;99.90;23.30;98415.00;;;;5042180;28;87155;-58
2022/07/22 05:07:50;;;;;;;3.65;1.70;;;22.60;99.90;23.10;98418.00;;;;5041811;28;86750;-58
2022/07/22 05:10:16;;;;;;;4.93;1.65;;;22.50;99.90;23.00;98417.00;;;;5041586;28;87479;-60
2022/07/22 05:12:43;;;;;;;4.32;1.70;;;22.10;99.90;22.70;98416.00;;;;5039558;27;87184;-59
2022/07/22 05:15:10;;;;;;;10.25;1.85;;;22.10;99.90;22.80;98423.00;;;;5036094;28;88001;-59
2022/07/22 05:17:36;;;;;;;2.90;1.45;;;22.20;99.90;23.40;98434.00;;;;5041571;28;87036;-59
2022/07/22 05:20:13;;;;;;;4.65;2.42;;;22.50;99.90;23.20;98432.00;;;;5021454;28;88688;-59
2022/07/22 05:22:39;;;;;;;7.70;1.60;;;22.50;99.90;23.50;98432.00;;;;5035168;28;87311;-59
2022/07/22 05:25:12;;;;;;;6.25;1.90;;;23.40;99.90;24.10;98427.00;;;;5041549;28;87830;-59
2022/07/22 05:27:54;;;;;;;4.32;1.50;;;23.40;99.90;23.70;98436.00;;;;5041190;28;87029;-58
2022/07/22 05:30:31;;;;;;;3.67;1.50;;;22.90;99.90;23.50;98432.00;;;;5045064;27;87571;-58
2022/07/22 05:32:58;;;;;;;2.55;1.42;;;23.00;99.90;22.60;98421.00;;;;5033526;28;88518;-59
2022/07/22 05:35:57;;;;;;;5.57;1.20;;;22.30;99.90;23.10;98440.00;;;;5029788;27;87049;-59
2022/07/22 05:38:27;;;;;;;2.55;1.30;;;22.60;99.90;22.30;98443.00;;;;5040633;28;87284;-59
2022/07/22 05:40:53;;;;;;;3.97;1.50;;;21.90;99.90;21.90;98429.00;;;;5056365;27;88558;-59
2022/07/22 05:43:19;;;;;;;2.22;1.20;;;21.50;99.90;22.50;98436.00;;;;5041669;27;88227;-59
2022/07/22 05:45:46;;;;;;;5.22;1.60;;;22.00;99.90;22.50;98448.00;;;;5042257;28;86984;-59
2022/07/22 05:48:12;;;;;;;2.80;1.52;;;21.90;99.90;22.40;98439.00;;;;5042948;27;87041;-58
2022/07/22 05:50:38;;;;;;;3.65;1.33;;;22.00;99.90;22.50;98437.00;;;;5040966;28;88716;-59
2022/07/22 05:53:04;;;;;;;4.22;1.58;;;22.00;99.90;22.40;98465.00;;;;5036110;28;87464;-59
2022/07/22 05:55:30;;;;;;;4.47;1.45;;;21.90;99.90;22.10;98456.00;;;;5040890;28;87022;-59
2022/07/22 05:57:57;;;;;;;6.15;1.75;;;21.00;99.90;21.40;98463.00;;;;5038948;28;86969;-59
2022/07/22 06:00:23;;;;;;;4.47;1.50;;;21.00;99.90;21.60;98449.00;;;;5032031;28;87761;-59
2022/07/22 06:02:49;;;;;;;7.03;1.73;;;21.20;99.90;21.90;98444.00;;;;5029724;28;87223;-58
2022/07/22 06:05:19;;;;;;;5.18;1.42;;;21.30;99.90;21.90;98469.00;;;;5041242;27;87944;-58
2022/07/22 06:07:46;;;;;;;3.50;1.40;;;21.50;99.90;22.00;98460.00;;;;5020513;28;87209;-61
2022/07/22 06:10:20;;;;;;;4.82;1.70;;;21.90;99.90;22.40;98463.00;;;;5040340;28;88901;-61
2022/07/22 06:12:46;;;;;;;3.72;1.50;;;21.90;99.90;22.50;98444.00;;;;5040882;28;88508;-61
2022/07/22 06:15:12;;;;;;;8.38;1.67;;;22.40;99.90;23.00;98450.00;;;;5039662;28;87460;-60
2022/07/22 06:17:40;;;;;;;4.55;1.50;;;22.30;99.90;22.90;98455.00;;;;5030157;28;87083;-61
2022/07/22 06:20:08;;;;;;;4.40;1.95;;;22.30;99.90;22.60;98459.00;;;;5040055;28;87596;-60
2022/07/22 06:22:34;;;;;;;2.58;1.50;;;22.20;99.90;22.70;98470.00;;;;5039746;28;87558;-58
2022/07/22 06:25:00;;;;;;;4.45;1.67;;;22.20;99.90;22.80;98439.00;;;;5039472;27;87023;-59
2022/07/22 06:27:27;;;;;;;5.45;2.00;;;22.10;99.90;22.70;98468.00;;;;5036157;28;87812;-60
2022/07/22 06:29:54;;;;;;;3.10;1.50;;;21.80;99.90;22.20;98476.00;;;;5041986;27;89621;-59
2022/07/22 06:32:21;;;;;;;5.45;1.85;;;21.70;99.90;21.80;98461.00;;;;5033016;28;89056;-59
2022/07/22 06:34:49;;;;;;;3.50;1.42;;;21.40;99.90;21.70;98459.00;;;;5039612;28;87790;-58
2022/07/22 06:37:16;;;;;;;7.40;1.50;;;21.50;99.90;21.60;98472.00;;;;5034174;28;87139;-61
2022/07/22 06:39:42;;;;;;;4.90;1.70;;;21.20;99.90;21.50;98456.00;;;;5036763;28;87648;-59
2022/07/22 06:42:13;;;;;;;3.97;1.40;;;21.30;99.90;21.40;98460.00;;;;5039247;28;89812;-62
2022/07/22 06:44:58;;;;;;;3.92;1.60;;;21.20;99.90;21.40;98467.00;;;;5040430;28;87040;-59
2022/07/22 06:47:46;;;;;;;2.80;1.63;;;21.20;99.90;21.30;98440.00;;;;5035446;28;86218;-60
2022/07/22 06:50:15;;;;;;;8.25;1.60;;;21.20;99.90;21.40;98473.00;;;;5040448;28;90373;-59
2022/07/22 06:52:42;;;;;;;5.60;1.55;;;21.40;99.90;21.60;98485.00;;;;5048934;27;87610;-60
2022/07/22 06:55:10;;;;;;;3.70;1.45;;;21.40;99.90;21.50;98472.00;;;;5023518;28;88835;-60
2022/07/22 06:57:41;;;;;;;3.20;1.60;;;21.40;99.90;21.50;98464.00;;;;5040321;28;87050;-60
2022/07/22 07:00:09;;;;;;;3.25;1.65;;;21.40;99.90;21.40;98473.00;;;;5037394;28;87699;-60
2022/07/22 07:02:53;;;;;;;7.40;1.65;;;21.20;99.90;21.60;98509.00;;;;5037218;28;88208;-60
2022/07/22 07:05:19;;;;;;;4.25;1.67;;;21.40;99.90;21.50;98462.00;;;;5035100;28;86964;-61
2022/07/22 07:07:46;;;;;;;2.13;1.42;;;21.30;99.90;21.40;98486.00;;;;5032360;28;86860;-60
2022/07/22 07:10:14;;;;;;;3.78;1.50;;;21.20;99.90;21.40;98469.00;;;;5040572;28;87734;-60
2022/07/22 07:12:49;;;;;;;4.13;1.70;;;21.30;99.90;21.50;98487.00;;;;5040485;28;87413;-60
2022/07/22 07:15:22;;;;;;;8.55;1.63;;;21.30;99.90;21.60;98473.00;;;;5030110;28;87199;-60
2022/07/22 07:17:49;;;;;;;5.38;1.75;;;21.30;99.90;21.60;98503.00;;;;5044028;27;88021;-60
2022/07/22 07:20:16;;;;;;;11.52;2.15;;;21.60;99.90;21.90;98481.00;;;;5038997;28;88828;-60
2022/07/22 07:22:42;;;;;;;9.88;1.85;;;21.70;99.90;22.00;98461.00;;;;5031759;28;88255;-60
2022/07/22 07:25:09;;;;;;;4.63;1.55;;;21.80;99.90;21.80;98485.00;;;;5022472;28;86974;-60
2022/07/22 07:27:36;;;;;;;4.00;1.65;;;21.60;99.90;22.00;98482.00;;;;5029039;28;87184;-60
2022/07/22 07:30:11;;;;;;;4.28;1.70;;;21.80;99.90;22.20;98483.00;;;;5036429;28;88223;-60
2022/07/22 07:32:38;;;;;;;5.78;1.80;;;21.80;99.90;22.30;98487.00;;;;5036999;28;87390;-59
2022/07/22 07:35:06;;;;;;;4.68;1.60;;;21.70;99.90;22.00;98483.00;;;;5035920;28;87162;-59
2022/07/22 07:37:32;;;;;;;2.05;1.40;;;21.70;99.90;22.00;98477.00;;;;5038520;28;86291;-59
2022/07/22 07:40:00;;;;;;;3.38;1.17;;;21.80;99.90;22.20;98508.00;;;;5042105;28;87277;-59
2022/07/22 07:42:26;;;;;;;5.95;1.73;;;21.80;99.90;22.10;98493.00;;;;5042649;28;87513;-59
2022/07/22 07:44:53;;;;;;;1.58;1.20;;;21.80;99.90;22.00;98500.00;;;;5048084;27;88121;-59
2022/07/22 07:47:20;;;;;;;3.00;1.40;;;21.70;99.90;21.90;98494.00;;;;5042778;28;87133;-59
2022/07/22 07:49:49;;;;;;;2.60;1.30;;;21.60;99.90;22.10;98490.00;;;;5042925;28;88538;-59
2022/07/22 07:52:18;;;;;;;7.80;1.90;;;21.70;99.90;22.00;98478.00;;;;5040614;28;87507;-59
2022/07/22 07:54:45;;;;;;;5.18;1.65;;;21.70;99.90;22.20;98500.00;;;;5042487;28;87059;-59
2022/07/22 07:57:12;;;;;;;4.97;1.60;;;22.20;99.90;22.60;98492.00;;;;5042792;28;87096;-59
2022/07/22 07:59:40;;;;;;;4.20;1.50;;;22.20;99.90;22.90;98494.00;;;;5041238;28;87568;-59
2022/07/22 08:02:07;;;;;;;5.80;1.77;;;22.60;99.90;23.00;98485.00;;;;5036009;28;86185;-59
2022/07/22 08:04:35;;;;;;;2.53;1.40;;;22.60;99.90;23.00;98500.00;;;;5041533;28;87604;-59
2022/07/22 08:07:06;;;;;;;3.45;1.42;;;22.60;99.90;22.80;98468.00;;;;5038551;28;88199;-59
2022/07/22 08:09:35;;;;;;;4.75;1.75;;;22.50;99.90;23.00;98475.00;;;;5038815;28;88601;-59
2022/07/22 08:12:05;;;;;;;1.98;1.20;;;22.40;99.90;22.70;98481.00;;;;5042632;28;88154;-59
2022/07/22 08:14:52;;;;;;;4.03;1.38;;;22.30;99.90;22.80;98473.00;;;;5042360;28;87450;-59
2022/07/22 08:17:30;;;;;;;5.35;1.45;;;22.50;99.90;22.70;98481.00;;;;5034361;28;87100;-59
2022/07/22 08:19:56;;;;;;;3.50;1.20;;;22.20;99.90;22.60;98493.00;;;;5039352;28;88150;-59
2022/07/22 08:22:23;;;;;;;4.07;1.20;;;22.20;99.90;22.50;98491.00;;;;5043244;27;88225;-59
2022/07/22 08:24:49;;;;;;;5.07;1.33;;;22.40;99.90;22.70;98493.00;;;;5042094;28;86981;-59
2022/07/22 08:27:17;;;;;;;6.32;1.60;;;22.50;99.90;22.70;98515.00;;;;5042528;28;86339;-59
2022/07/22 08:29:44;;;;;;;2.58;1.15;;;22.40;99.90;23.00;98509.00;;;;5058366;27;87586;-59
2022/07/22 08:32:10;;;;;;;3.75;1.30;;;22.50;99.90;23.00;98506.00;;;;5042628;27;88348;-59
2022/07/22 08:34:36;;;;;;;3.17;1.25;;;22.60;99.90;23.00;98506.00;;;;5045301;27;88546;-59
2022/07/22 08:37:04;;;;;;;3.83;1.50;;;22.40;99.90;22.70;98536.00;;;;5042378;28;87334;-59
2022/07/22 08:39:30;;;;;;;3.20;1.00;;;22.40;99.90;23.10;98493.00;;;;5042200;28;87752;-59
2022/07/22 08:41:57;;;;;;;2.30;1.48;;;22.70;99.90;23.30;98489.00;;;;5037930;28;87878;-59
2022/07/22 08:44:24;;;;;;;3.78;1.73;;;23.30;99.90;23.70;98484.00;;;;5053624;27;87116;-59
2022/07/22 08:46:50;;;;;;;3.50;1.50;;;23.40;99.90;23.80;98501.00;;;;5038902;27;86974;-60
2022/07/22 08:49:19;;;;;;;4.97;1.30;;;23.30;99.90;23.80;98517.00;;;;5042858;28;87555;-60
2022/07/22 08:52:12;;;;;;;2.72;1.40;;;23.40;99.90;23.80;98501.00;;;;5039305;27;87226;-59
2022/07/22 08:54:42;;;;;;;2.90;1.38;;;23.60;99.90;24.00;98512.00;;;;5040587;28;86993;-59
2022/07/22 08:57:10;;;;;;;4.35;1.30;;;23.50;99.90;23.90;98509.00;;;;5037955;28;87076;-59
2022/07/22 08:59:58;;;;;;;5.18;1.55;;;23.50;99.90;24.00;98514.00;;;;5041783;28;88610;-59
2022/07/22 09:02:25;;;;;;;3.00;1.25;;;23.80;99.90;24.20;98502.00;;;;5039625;28;87961;-59
2022/07/22 09:05:05;;;;;;;4.43;1.50;;;23.80;99.90;24.30;98501.00;;;;5029161;28;87252;-59
2022/07/22 09:07:39;;;;;;;2.67;1.52;;;24.00;99.90;24.30;98527.00;;;;5039890;27;87561;-59
2022/07/22 09:10:19;;;;;;;4.53;1.35;;;23.90;99.90;23.80;98513.00;;;;5041417;28;88202;-59
2022/07/22 09:13:04;;;;;;;5.72;1.25;;;23.40;99.90;23.50;98521.00;;;;5042720;28;88084;-59
2022/07/22 09:15:54;;;;;;;9.15;1.42;;;23.10;99.90;23.20;98524.00;;;;5042076;27;87022;-59
2022/07/22 09:18:52;;;;;;;2.78;1.52;;;22.60;99.90;22.90;98536.00;;;;5038081;28;87763;-59
2022/07/22 09:21:42;;;;;;;4.15;1.50;;;22.50;99.90;22.80;98534.00;;;;5025247;28;87456;-59
2022/07/22 09:24:33;;;;;;;9.57;1.73;;;22.50;99.90;22.90;98531.00;;;;5041817;28;87813;-59
2022/07/22 09:27:26;;;;;;;3.67;1.30;;;22.50;99.90;23.30;98539.00;;;;5038329;28;88349;-59
2022/07/22 09:30:19;;;;;;;1.98;1.30;;;23.40;99.90;23.80;98536.00;;;;5042213;28;86993;-59
2022/07/22 09:32:56;;;;;;;13.90;1.57;;;23.70;99.90;24.20;98530.00;;;;5023956;28;87681;-60
2022/07/22 09:35:37;;;;;;;4.53;1.60;;;23.70;99.90;24.20;98520.00;;;;5052860;27;87377;-59
2022/07/22 09:38:10;;;;;;;3.38;1.40;;;23.70;99.90;24.30;98519.00;;;;5054237;27;87067;-59
2022/07/22 09:40:46;;;;;;;2.78;1.40;;;23.80;99.90;24.40;98531.00;;;;5035459;28;87292;-59
2022/07/22 09:43:19;;;;;;;2.50;1.08;;;23.80;99.90;24.30;98546.00;;;;5038629;28;87154;-59
2022/07/22 09:45:57;;;;;;;7.43;1.48;;;23.80;99.90;24.10;98542.00;;;;5024041;28;87326;-59
2022/07/22 09:48:38;;;;;;;7.90;1.48;;;23.60;99.90;24.00;98542.00;;;;5032982;28;87092;-59
2022/07/22 09:51:24;;;;;;;5.25;1.65;;;23.60;99.90;23.70;98538.00;;;;5041724;28;86877;-59
2022/07/22 09:54:11;;;;;;;5.28;1.48;;;23.30;99.90;23.70;98521.00;;;;5029003;28;88672;-59
2022/07/22 09:56:39;;;;;;;4.35;1.33;;;23.60;99.90;23.90;98538.00;;;;5039263;28;88337;-59
2022/07/22 09:59:05;;;;;;;4.93;1.50;;;23.60;99.90;24.00;98539.00;;;;5050020;27;87032;-59
2022/07/22 10:01:37;;;;;;;4.20;1.60;;;23.60;99.90;24.20;98531.00;;;;5035330;28;87239;-59
2022/07/22 10:04:06;;;;;;;4.18;1.10;;;24.00;99.90;24.50;98534.00;;;;5023950;28;87889;-59
2022/07/22 10:06:34;;;;;;;3.05;1.30;;;24.00;99.90;24.50;98527.00;;;;5051086;27;88154;-59
2022/07/22 10:09:00;;;;;;;1.65;1.30;;;24.00;99.90;24.50;98529.00;;;;5037216;28;87011;-59
2022/07/22 10:11:27;;;;;;;5.70;1.10;;;23.80;99.90;24.10;98551.00;;;;5022988;28;86191;-59
2022/07/22 10:13:53;;;;;;;3.95;1.50;;;23.50;99.90;23.80;98544.00;;;;5040088;27;87540;-59
2022/07/22 10:16:20;;;;;;;2.22;1.23;;;23.60;99.90;23.90;98561.00;;;;5039720;28;88635;-58
2022/07/22 10:18:47;;;;;;;2.33;1.20;;;23.50;99.90;24.00;98545.00;;;;5020237;28;88000;-58
2022/07/22 10:21:14;;;;;;;3.55;1.35;;;23.50;99.90;23.90;98560.00;;;;5040944;28;87087;-59
2022/07/22 10:24:13;;;;;;;2.13;1.00;;;23.50;99.90;24.00;98540.00;;;;5040272;28;86992;-59
2022/07/22 10:26:57;;;;;;;3.08;1.13;;;23.60;99.90;24.50;98536.00;;;;5021727;28;89019;-59
2022/07/22 10:29:40;;;;;;;2.40;1.10;;;24.10;99.90;24.80;98524.00;;;;5041178;27;87575;-59
2022/07/22 10:32:18;;;;;;;2.28;1.17;;;24.40;99.90;24.80;98549.00;;;;5034726;27;87058;-59
2022/07/22 10:35:06;;;;;;;3.83;1.13;;;24.30;99.90;24.60;98556.00;;;;5040285;28;87734;-58
2022/07/22 10:37:36;;;;;;;4.22;1.20;;;24.20;99.90;24.30;98563.00;;;;5040492;28;86334;-59
2022/07/22 10:40:22;;;;;;;3.00;1.40;;;23.90;99.90;24.20;98556.00;;;;5040368;27;86996;-60
2022/07/22 10:42:57;;;;;;;3.92;1.40;;;23.70;99.90;24.20;98547.00;;;;5040761;27;86994;-60
2022/07/22 10:45:28;;;;;;;4.65;1.20;;;24.00;99.90;24.30;98556.00;;;;5039134;28;89637;-59
2022/07/22 10:48:00;;;;;;;3.92;1.48;;;24.00;99.90;24.60;98541.00;;;;5039155;28;88449;-60
2022/07/22 10:50:38;;;;;;;4.65;1.13;;;24.40;99.90;24.90;98549.00;;;;5041604;27;86946;-59
2022/07/22 10:53:11;;;;;;;4.15;1.50;;;24.50;99.90;25.00;98554.00;;;;5041263;27;87409;-59
2022/07/22 10:56:17;;;;;;;3.00;1.50;;;24.50;99.90;25.00;98551.00;;;;5040031;27;88914;-61
2022/07/22 10:58:59;;;;;;;3.42;1.23;;;24.50;99.90;25.00;98565.00;;;;5039627;28;87366;-61
2022/07/22 11:01:31;;;;;;;2.10;1.10;;;24.50;99.90;25.00;98554.00;;;;5032706;28;87049;-61
2022/07/22 11:04:25;;;;;;;7.47;1.10;;;24.50;99.90;25.00;98557.00;;;;5041136;27;86591;-60
2022/07/22 11:06:55;;;;;;;8.13;1.40;;;24.30;99.90;24.70;98547.00;;;;5040588;28;87700;-60